Time;durP1;ratioP1;P1;durP2;ratioP2;P2;SDS_P1;SDS_P2;PMS_P1;PMS_P2;Temp;Humidity;BMP_temperature;BMP_pressure;BME280_temperature;BME280_humidity;BME280_pressure;Samples;Min_cycle;Max_cycle;Signal;HPM_P1;HPM_P2
2023/07/05 00:00:14;;;;;;;8.60;6.63;;;;;;;23.44;44.93;97033.25;5047199;28;20572;-69
2023/07/05 00:02:39;;;;;;;7.50;6.73;;;;;;;23.46;44.74;97039.16;5049584;28;20280;-70
2023/07/05 00:05:05;;;;;;;5.10;4.00;;;;;;;23.47;44.67;97035.44;5049548;28;20183;-70
2023/07/05 00:07:30;;;;;;;8.90;3.90;;;;;;;23.46;44.53;97025.81;5043203;28;20178;-69
2023/07/05 00:09:56;;;;;;;5.17;4.20;;;;;;;23.44;44.71;97032.44;5053817;28;20244;-69
2023/07/05 00:12:21;;;;;;;6.03;3.47;;;;;;;23.39;45.04;97033.16;5066877;28;20939;-70
2023/07/05 00:14:47;;;;;;;9.97;4.07;;;;;;;23.33;45.12;97031.44;5054114;28;20175;-70
2023/07/05 00:17:12;;;;;;;4.33;3.93;;;;;;;23.26;45.36;97031.56;5057339;28;20195;-70
2023/07/05 00:19:39;;;;;;;3.53;3.20;;;;;;;23.21;45.29;97022.66;5048545;28;20222;-68
2023/07/05 00:22:04;;;;;;;4.17;3.50;;;;;;;23.14;44.93;97031.59;5055044;28;20194;-71
2023/07/05 00:24:29;;;;;;;5.33;3.20;;;;;;;23.12;45.25;97028.34;5052439;28;20428;-69
2023/07/05 00:26:55;;;;;;;6.53;3.23;;;;;;;23.13;45.35;97026.47;5057068;28;20663;-70
2023/07/05 00:29:20;;;;;;;4.07;2.80;;;;;;;23.19;45.33;97027.41;5064591;28;20601;-70
2023/07/05 00:31:46;;;;;;;5.87;3.50;;;;;;;23.08;45.57;97027.19;5053169;28;20346;-71
2023/07/05 00:34:11;;;;;;;4.93;3.20;;;;;;;23.12;45.64;97017.66;5050651;28;20304;-70
2023/07/05 00:36:37;;;;;;;3.73;3.20;;;;;;;23.17;45.29;97016.94;5035992;28;20188;-69
2023/07/05 00:39:02;;;;;;;3.30;2.60;;;;;;;23.10;45.32;97011.75;5046153;28;20182;-69
2023/07/05 00:41:28;;;;;;;5.07;3.40;;;;;;;23.12;45.47;97012.31;5061290;28;20178;-69
2023/07/05 00:43:53;;;;;;;4.97;3.23;;;;;;;23.09;45.61;97010.13;5054403;28;20285;-69
2023/07/05 00:46:18;;;;;;;4.17;2.83;;;;;;;23.04;45.40;97009.19;5052605;28;20271;-70
2023/07/05 00:48:58;;;;;;;2.73;2.53;;;;;;;22.90;45.74;97008.69;5063615;28;20256;-69
2023/07/05 00:51:35;;;;;;;4.90;2.57;;;;;;;22.76;46.25;97000.94;5052313;28;20212;-70
2023/07/05 00:54:04;;;;;;;3.50;2.60;;;;;;;22.73;46.29;97006.72;5047363;28;20429;-70
2023/07/05 00:56:47;;;;;;;3.60;2.70;;;;;;;22.69;46.45;97000.22;5049668;28;20981;-68
2023/07/05 00:59:13;;;;;;;3.77;2.50;;;;;;;22.77;46.29;96997.22;5042636;28;20445;-69
2023/07/05 01:01:39;;;;;;;6.20;2.60;;;;;;;22.81;46.07;96984.97;5044322;28;21022;-68
2023/07/05 01:04:05;;;;;;;2.70;2.43;;;;;;;22.76;46.35;96984.91;5053049;28;20430;-70
2023/07/05 01:06:30;;;;;;;5.70;2.90;;;;;;;22.77;46.37;96991.88;5050916;28;20191;-70
2023/07/05 01:08:56;;;;;;;5.00;2.50;;;;;;;22.65;46.69;96999.09;5059429;28;20198;-69
2023/07/05 01:11:55;;;;;;;5.30;3.70;;;;;;;22.79;46.38;96997.78;5054434;28;20213;-69
2023/07/05 01:14:39;;;;;;;3.63;2.83;;;;;;;22.85;46.44;96994.16;5043448;28;20455;-70
2023/07/05 01:17:07;;;;;;;5.57;3.10;;;;;;;22.92;46.75;96988.69;5060825;28;20422;-69
2023/07/05 01:19:59;;;;;;;4.57;2.60;;;;;;;22.95;47.10;96990.06;5053517;28;20436;-69
2023/07/05 01:23:04;;;;;;;2.57;2.37;;;;;;;22.94;47.36;96991.94;5059647;28;20473;-70
2023/07/05 01:25:52;;;;;;;3.00;2.50;;;;;;;22.99;47.52;96978.69;5057927;28;20922;-70
2023/07/05 01:28:20;;;;;;;3.10;2.63;;;;;;;23.04;47.58;96977.13;5044120;28;20425;-70
2023/07/05 01:31:01;;;;;;;2.80;2.03;;;;;;;22.99;47.81;96961.81;5046227;28;20469;-70
2023/07/05 01:33:37;;;;;;;2.43;2.23;;;;;;;22.95;47.94;96966.00;5056658;28;20480;-70
2023/07/05 01:36:03;;;;;;;2.30;2.10;;;;;;;22.99;47.71;96969.84;5048970;28;20420;-70
2023/07/05 01:38:28;;;;;;;4.60;2.20;;;;;;;23.00;47.63;96969.59;5050600;28;20431;-70
2023/07/05 01:40:58;;;;;;;3.70;2.00;;;;;;;23.03;47.50;96965.66;5053218;28;20429;-70
2023/07/05 01:43:25;;;;;;;3.37;2.17;;;;;;;23.01;47.70;96967.75;5063063;28;20229;-70
2023/07/05 01:46:00;;;;;;;5.33;2.40;;;;;;;23.01;47.76;96957.06;5050942;28;20425;-69
2023/07/05 01:49:02;;;;;;;2.37;2.17;;;;;;;22.93;48.10;96968.13;5054374;28;20428;-69
2023/07/05 01:51:28;;;;;;;2.73;2.40;;;;;;;22.90;48.17;96971.28;5046387;28;20841;-70
2023/07/05 01:54:30;;;;;;;4.33;2.10;;;;;;;22.80;48.31;96986.06;5060779;28;20429;-70
2023/07/05 01:57:05;;;;;;;6.00;2.20;;;;;;;22.84;47.97;96995.19;5054150;28;20186;-69
2023/07/05 01:59:37;;;;;;;10.30;2.20;;;;;;;22.84;47.60;96981.84;5051474;28;20837;-70
2023/07/05 02:02:04;;;;;;;3.00;2.07;;;;;;;22.85;47.84;96994.16;5045986;28;20433;-71
2023/07/05 02:04:35;;;;;;;3.20;2.10;;;;;;;22.84;47.68;96997.88;5046785;28;20449;-70
2023/07/05 02:07:02;;;;;;;2.47;2.27;;;;;;;22.84;47.90;96997.06;5050573;28;20434;-71
2023/07/05 02:09:28;;;;;;;1.73;1.63;;;;;;;22.89;47.78;97001.72;5041819;28;20434;-69
2023/07/05 02:11:53;;;;;;;3.50;2.10;;;;;;;22.91;47.72;97004.97;5053729;28;20465;-70
2023/07/05 02:14:20;;;;;;;3.70;2.23;;;;;;;22.90;47.42;97025.50;5047135;28;20190;-70
2023/07/05 02:16:45;;;;;;;2.30;2.07;;;;;;;22.91;47.51;97029.81;5032116;28;20195;-71
2023/07/05 02:19:11;;;;;;;2.33;2.03;;;;;;;22.92;47.36;97010.06;5012802;28;20437;-70
2023/07/05 02:21:36;;;;;;;2.20;2.00;;;;;;;22.92;47.39;97006.59;5048290;28;20656;-69
2023/07/05 02:24:02;;;;;;;4.27;1.90;;;;;;;22.91;47.49;97012.97;5043174;28;20625;-69
2023/07/05 02:26:27;;;;;;;2.50;2.00;;;;;;;22.91;47.33;97019.13;5050203;28;20593;-69
2023/07/05 02:28:53;;;;;;;4.23;2.30;;;;;;;22.90;47.38;97019.38;5046499;28;20218;-69
2023/07/05 02:31:18;;;;;;;2.20;1.77;;;;;;;22.86;47.33;97027.84;5046766;28;20207;-69
2023/07/05 02:33:44;;;;;;;1.73;1.63;;;;;;;;;;5045883;28;20214;-69
2023/07/05 02:36:14;;;;;;;1.70;1.50;;;;;;;22.86;48.00;97035.84;5047332;28;20240;-69
2023/07/05 02:38:40;;;;;;;2.20;1.40;;;;;;;22.91;48.30;97047.69;5046641;28;20232;-69
2023/07/05 02:41:07;;;;;;;2.40;1.67;;;;;;;22.90;49.08;97028.19;5052721;28;20850;-69
2023/07/05 02:43:32;;;;;;;1.70;1.60;;;;;;;22.91;48.96;97026.34;5048889;28;20579;-69
2023/07/05 02:45:57;;;;;;;2.10;1.90;;;;;;;22.88;49.23;97037.47;5059562;28;20515;-70
2023/07/05 02:48:23;;;;;;;2.30;1.70;;;;;;;22.89;49.29;97031.09;5050236;28;20273;-68
2023/07/05 02:50:48;;;;;;;3.20;1.77;;;;;;;22.87;49.36;97031.34;5050407;28;20210;-69
2023/07/05 02:53:14;;;;;;;1.87;1.60;;;;;;;22.89;49.40;97034.56;5052115;28;20243;-69
2023/07/05 02:55:39;;;;;;;2.27;1.83;;;;;;;22.94;49.85;97039.19;5049453;28;20190;-69
2023/07/05 02:58:05;;;;;;;2.40;1.80;;;;;;;22.96;49.88;97045.13;5050175;28;20191;-70
2023/07/05 03:00:30;;;;;;;2.13;1.90;;;;;;;22.94;49.89;97029.34;5054001;28;20671;-69
2023/07/05 03:02:56;;;;;;;2.23;1.90;;;;;;;22.95;49.74;97032.81;5041398;28;20689;-69
2023/07/05 03:05:22;;;;;;;2.90;1.70;;;;;;;22.93;49.91;97032.25;5054632;28;20195;-70
2023/07/05 03:07:47;;;;;;;2.33;1.80;;;;;;;;;;5047074;28;20186;-70
2023/07/05 03:10:13;;;;;;;3.30;1.83;;;;;;;22.73;50.73;97032.63;5042828;28;20893;-68
2023/07/05 03:12:39;;;;;;;1.93;1.73;;;;;;;22.74;50.40;97032.41;5043265;28;20211;-69
2023/07/05 03:15:05;;;;;;;3.23;2.10;;;;;;;22.79;50.42;97035.19;5044099;28;20274;-70
2023/07/05 03:17:30;;;;;;;2.53;1.87;;;;;;;22.76;50.64;97041.00;5042013;28;20512;-70
2023/07/05 03:19:57;;;;;;;3.33;2.00;;;;;;;22.71;50.79;97030.19;5037798;28;20427;-69
2023/07/05 03:22:22;;;;;;;6.60;1.70;;;;;;;22.75;50.59;97031.34;5045728;28;20218;-70
2023/07/05 03:24:51;;;;;;;3.00;1.80;;;;;;;22.72;50.71;97039.81;5041168;28;20438;-70
2023/07/05 03:27:17;;;;;;;2.40;1.80;;;;;;;22.75;50.78;97042.03;5043472;28;20198;-70
2023/07/05 03:29:43;;;;;;;2.13;1.60;;;;;;;22.75;50.61;97039.38;5032507;28;20446;-69
2023/07/05 03:32:08;;;;;;;3.80;1.60;;;;;;;22.77;50.59;97033.78;5047910;28;20207;-71
2023/07/05 03:34:34;;;;;;;2.33;1.90;;;;;;;22.76;50.65;97049.00;5046364;28;20191;-69
2023/07/05 03:36:59;;;;;;;3.30;1.67;;;;;;;22.67;50.28;97045.88;5050527;28;20677;-69
2023/07/05 03:39:25;;;;;;;2.10;1.90;;;;;;;22.59;50.63;97056.09;5046016;28;20279;-69
2023/07/05 03:41:50;;;;;;;2.37;1.90;;;;;;;22.54;50.81;97049.63;5049177;28;20590;-68
2023/07/05 03:44:15;;;;;;;1.97;1.60;;;;;;;22.55;50.68;97056.59;5049170;28;20195;-70
2023/07/05 03:46:43;;;;;;;4.37;1.70;;;;;;;22.62;50.67;97050.28;5050782;28;20197;-70
2023/07/05 03:49:08;;;;;;;2.00;1.87;;;;;;;22.62;50.59;97052.97;5054776;28;20197;-69
2023/07/05 03:51:34;;;;;;;2.63;2.10;;;;;;;22.62;50.50;97048.41;5048061;28;20457;-69
2023/07/05 03:53:59;;;;;;;2.20;1.80;;;;;;;22.64;50.77;97048.19;5046083;28;20191;-70
2023/07/05 03:56:30;;;;;;;2.00;1.80;;;;;;;22.62;50.84;97050.28;5043462;28;20403;-69
2023/07/05 03:58:55;;;;;;;2.67;2.17;;;;;;;22.57;51.07;97048.31;5044679;28;20637;-68
2023/07/05 04:01:23;;;;;;;2.33;1.97;;;;;;;22.63;51.22;97051.91;5053128;28;20536;-70
2023/07/05 04:03:55;;;;;;;2.47;1.57;;;;;;;22.59;51.64;97058.75;5044702;28;20574;-70
2023/07/05 04:06:21;;;;;;;1.80;1.70;;;;;;;22.57;51.59;97068.84;5049289;28;20520;-71
2023/07/05 04:08:47;;;;;;;4.63;2.00;;;;;;;22.44;52.57;97068.03;5034285;28;20509;-70
2023/07/05 04:11:12;;;;;;;3.90;1.80;;;;;;;22.45;52.37;97063.53;5047839;28;21071;-70
2023/07/05 04:13:38;;;;;;;4.53;2.60;;;;;;;22.32;53.19;97064.53;5049531;28;20207;-69
2023/07/05 04:16:10;;;;;;;3.53;2.47;;;;;;;22.29;53.21;97065.00;5049225;28;20191;-70
2023/07/05 04:18:36;;;;;;;3.70;1.83;;;;;;;22.34;53.14;97059.78;5046458;28;20278;-68
2023/07/05 04:21:01;;;;;;;3.70;2.20;;;;;;;22.41;52.87;97052.50;5049570;28;20484;-69
2023/07/05 04:23:27;;;;;;;5.03;2.23;;;;;;;22.40;52.86;97045.53;5048853;28;20457;-71
2023/07/05 04:26:07;;;;;;;2.43;1.80;;;;;;;22.45;52.89;97042.97;5051339;28;20187;-70
2023/07/05 04:28:33;;;;;;;2.07;1.73;;;;;;;22.35;53.47;97048.88;5045522;28;20206;-71
2023/07/05 04:30:59;;;;;;;2.30;1.90;;;;;;;22.21;54.05;97039.47;5047650;28;20467;-70
2023/07/05 04:33:25;;;;;;;2.20;2.00;;;;;;;22.30;53.73;97035.41;5048587;28;20460;-70
2023/07/05 04:35:54;;;;;;;2.63;2.00;;;;;;;22.25;53.93;97041.44;5047634;28;20945;-70
2023/07/05 04:38:19;;;;;;;4.93;2.50;;;;;;;22.33;53.75;97040.28;5045204;28;20214;-71
2023/07/05 04:40:45;;;;;;;2.40;1.50;;;;;;;22.33;53.74;97034.97;5048444;28;20816;-70
2023/07/05 04:43:10;;;;;;;2.53;1.80;;;;;;;22.32;53.74;97033.31;5051811;28;20574;-70
2023/07/05 04:45:36;;;;;;;2.60;1.90;;;;;;;22.30;53.80;97040.75;5056568;28;20186;-70
2023/07/05 04:48:01;;;;;;;2.93;2.00;;;;;;;22.35;53.97;97037.38;5051347;28;20186;-70
2023/07/05 04:50:27;;;;;;;2.50;2.27;;;;;;;22.37;53.81;97043.31;5048339;28;20190;-70
2023/07/05 04:52:52;;;;;;;4.63;1.67;;;;;;;22.38;53.81;97042.25;5047305;28;20671;-71
2023/07/05 04:55:18;;;;;;;3.50;1.60;;;;;;;22.16;54.93;97036.69;5040346;28;20217;-71
2023/07/05 04:57:43;;;;;;;2.70;1.97;;;;;;;22.18;54.81;97032.72;5033384;28;20199;-71
2023/07/05 05:00:11;;;;;;;4.43;2.03;;;;;;;22.14;55.13;97020.09;5047155;28;20274;-71
2023/07/05 05:02:37;;;;;;;3.70;2.13;;;;;;;22.12;55.37;97024.81;5046410;28;20214;-70
2023/07/05 05:05:03;;;;;;;4.27;2.30;;;;;;;22.15;55.18;97017.19;5049697;28;20531;-71
2023/07/05 05:07:29;;;;;;;3.07;1.67;;;;;;;22.15;55.44;97019.88;5046768;28;20429;-70
2023/07/05 05:09:55;;;;;;;2.63;2.30;;;;;;;22.22;55.07;97007.22;5061467;28;20535;-70
2023/07/05 05:12:21;;;;;;;3.20;2.00;;;;;;;22.25;54.78;96988.06;5053235;28;20207;-69
2023/07/05 05:14:46;;;;;;;5.30;2.20;;;;;;;22.31;55.25;96988.16;5058809;28;21235;-69
2023/07/05 05:17:12;;;;;;;2.37;2.00;;;;;;;22.37;54.78;96987.25;5048668;28;20880;-70
2023/07/05 05:19:37;;;;;;;3.30;1.87;;;;;;;22.37;54.97;96988.06;5056225;28;20187;-69
2023/07/05 05:22:03;;;;;;;2.53;1.90;;;;;;;22.41;54.91;96993.78;5055090;28;20205;-70
2023/07/05 05:24:28;;;;;;;2.90;1.80;;;;;;;22.54;54.44;96992.72;5053251;28;20186;-70
2023/07/05 05:26:54;;;;;;;3.03;1.80;;;;;;;22.51;54.91;96998.50;5047141;28;20236;-69
2023/07/05 05:29:20;;;;;;;13.10;1.90;;;;;;;22.57;54.48;97007.44;5055477;28;20218;-70
2023/07/05 05:31:47;;;;;;;4.57;2.10;;;;;;;22.61;54.42;97008.59;5053877;28;20504;-71
2023/07/05 05:34:13;;;;;;;4.43;1.70;;;;;;;22.64;54.39;97002.81;5048718;28;20648;-69
2023/07/05 05:36:38;;;;;;;3.10;1.90;;;;;;;22.51;54.65;97015.38;5046874;28;20532;-69
2023/07/05 05:39:04;;;;;;;1.93;1.57;;;;;;;22.67;54.26;97013.81;5055395;28;20186;-71
2023/07/05 05:41:29;;;;;;;6.80;1.70;;;;;;;22.57;54.31;97026.13;5056714;28;20196;-70
2023/07/05 05:43:55;;;;;;;2.27;1.70;;;;;;;22.69;54.09;97022.41;5053844;28;20290;-70
2023/07/05 05:46:20;;;;;;;3.43;2.00;;;;;;;22.80;53.88;97023.44;5046747;28;20229;-69
2023/07/05 05:48:45;;;;;;;3.73;2.10;;;;;;;22.78;53.56;97025.53;5050200;28;20203;-68
2023/07/05 05:51:11;;;;;;;4.53;1.90;;;;;;;22.89;53.66;97023.06;5050549;28;20226;-70
2023/07/05 05:53:36;;;;;;;3.57;1.63;;;;;;;23.04;53.38;97034.09;5049636;28;20213;-68
2023/07/05 05:56:02;;;;;;;1.87;1.53;;;;;;;23.17;53.02;97025.78;5046927;28;20191;-69
2023/07/05 05:58:27;;;;;;;2.40;2.00;;;;;;;23.27;52.64;97021.72;5047615;28;20217;-70
2023/07/05 06:00:53;;;;;;;4.83;2.23;;;;;;;23.24;52.84;97027.53;5047110;28;20789;-69
2023/07/05 06:03:18;;;;;;;4.07;1.97;;;;;;;23.20;52.55;97021.03;5042782;28;20281;-71
2023/07/05 06:05:44;;;;;;;4.70;2.30;;;;;;;23.21;52.69;97034.16;5040743;28;20656;-68
2023/07/05 06:08:09;;;;;;;2.80;2.00;;;;;;;22.97;53.49;97036.06;5064231;28;20707;-69
2023/07/05 06:10:35;;;;;;;4.03;1.83;;;;;;;22.94;53.60;97033.84;5048692;28;20202;-70
2023/07/05 06:13:01;;;;;;;2.40;2.03;;;;;;;23.04;53.28;97028.75;5055807;28;20235;-70
2023/07/05 06:15:26;;;;;;;3.07;2.00;;;;;;;23.18;52.86;97039.97;5047342;28;20237;-70
2023/07/05 06:17:53;;;;;;;2.13;1.93;;;;;;;23.19;52.98;97052.28;5046906;28;20211;-69
2023/07/05 06:20:18;;;;;;;3.60;2.43;;;;;;;23.28;52.53;97066.91;5056662;28;20194;-69
2023/07/05 06:22:44;;;;;;;8.50;2.20;;;;;;;23.14;52.29;97068.19;5056963;28;20873;-69
2023/07/05 06:25:12;;;;;;;3.30;2.00;;;;;;;23.27;52.23;97059.13;5043566;28;20253;-69
2023/07/05 06:27:39;;;;;;;6.60;2.30;;;;;;;23.37;52.17;97053.97;5043305;28;20207;-68
2023/07/05 06:30:05;;;;;;;3.67;2.00;;;;;;;23.52;51.79;97049.97;5044900;28;20474;-69
2023/07/05 06:32:32;;;;;;;2.07;1.70;;;;;;;23.62;51.79;97072.38;5060534;28;20559;-73
2023/07/05 06:34:58;;;;;;;2.30;1.70;;;;;;;23.73;51.28;97078.69;5050687;28;20787;-71
2023/07/05 06:37:23;;;;;;;2.47;1.90;;;;;;;23.82;52.09;97089.03;5051062;28;20441;-70
2023/07/05 06:39:49;;;;;;;2.93;2.30;;;;;;;23.85;52.49;97088.53;5059710;28;20187;-70
2023/07/05 06:42:14;;;;;;;4.83;2.43;;;;;;;23.82;53.42;97092.50;5056312;28;20282;-69
2023/07/05 06:44:40;;;;;;;5.67;2.50;;;;;;;23.74;54.13;97091.03;5050303;28;20191;-69
2023/07/05 06:47:05;;;;;;;4.90;2.23;;;;;;;23.57;55.20;97098.19;5050445;28;20725;-69
2023/07/05 06:49:31;;;;;;;3.07;1.90;;;;;;;23.21;56.65;97111.69;5051614;28;20233;-70
2023/07/05 06:51:57;;;;;;;3.07;2.23;;;;;;;23.11;57.19;97122.94;5050058;28;20327;-70
2023/07/05 06:54:22;;;;;;;4.40;2.50;;;;;;;23.07;57.63;97129.00;5048569;28;20198;-69
2023/07/05 06:56:47;;;;;;;9.90;2.30;;;;;;;22.92;58.48;97143.63;5037663;28;20290;-71
2023/07/05 06:59:13;;;;;;;5.40;2.00;;;;;;;22.76;59.57;97131.81;5051553;28;20712;-71
2023/07/05 07:05:00;;;;;;;3.77;2.23;;;;;;;22.64;60.40;97149.69;5011675;28;20339;-72
2023/07/05 07:07:26;;;;;;;4.30;2.07;;;;;;;22.53;59.71;97144.09;5037863;28;20540;-71
2023/07/05 07:09:52;;;;;;;4.53;3.40;;;;;;;22.51;60.11;97135.50;5067512;28;20190;-71
2023/07/05 07:12:17;;;;;;;4.93;3.70;;;;;;;22.53;60.68;97145.94;5089056;28;20237;-70
2023/07/05 07:14:43;;;;;;;2.83;2.20;;;;;;;22.51;60.42;97148.84;5096333;28;20284;-70
2023/07/05 07:17:08;;;;;;;3.90;2.73;;;;;;;22.61;60.80;97148.31;5097393;27;20326;-70
2023/07/05 07:19:33;;;;;;;4.93;2.10;;;;;;;22.64;60.72;97157.69;5060593;28;20631;-71
2023/07/05 07:21:59;;;;;;;4.20;2.63;;;;;;;22.70;60.82;97156.75;5042580;28;20223;-70
2023/07/05 07:24:24;;;;;;;2.83;1.93;;;;;;;22.74;60.62;97165.94;4964917;28;20283;-69
2023/07/05 07:26:51;;;;;;;2.10;1.90;;;;;;;22.79;60.59;97155.38;4992122;28;20258;-71
2023/07/05 07:29:16;;;;;;;3.77;2.13;;;;;;;22.85;60.38;97159.78;4958228;28;20617;-70
2023/07/05 07:31:42;;;;;;;4.40;2.10;;;;;;;22.87;60.71;97167.59;4950202;28;20635;-70
2023/07/05 07:34:08;;;;;;;3.80;1.80;;;;;;;23.01;60.50;97162.81;4951694;28;20647;-70
2023/07/05 07:36:45;;;;;;;3.10;1.60;;;;;;;23.24;60.23;97170.03;4950478;28;21271;-70
2023/07/05 07:39:10;;;;;;;5.10;2.30;;;;;;;23.58;59.62;97156.81;4949455;28;20205;-70
2023/07/05 07:41:37;;;;;;;2.50;1.93;;;;;;;23.76;57.70;97169.19;4949615;28;20442;-71
2023/07/05 07:44:08;;;;;;;5.43;2.00;;;;;;;23.85;55.59;97153.56;4950642;28;20230;-69
2023/07/05 07:46:35;;;;;;;4.33;2.53;;;;;;;23.91;55.32;97168.66;4950842;28;20453;-72
2023/07/05 07:49:01;;;;;;;2.13;1.70;;;;;;;23.83;53.50;97168.22;4950436;28;20620;-70
2023/07/05 07:51:30;;;;;;;3.23;1.83;;;;;;;23.70;54.25;97172.81;4950978;28;20556;-69
2023/07/05 07:53:55;;;;;;;2.83;1.80;;;;;;;23.60;54.89;97170.75;4950624;28;20442;-70
2023/07/05 07:56:22;;;;;;;3.90;2.97;;;;;;;23.57;55.74;97175.75;4951469;28;20442;-70
2023/07/05 07:58:50;;;;;;;3.40;1.60;;;;;;;23.53;54.87;97177.28;4941346;28;20194;-69
2023/07/05 08:01:40;;;;;;;3.13;2.77;;;;;;;23.50;53.63;97183.09;4950456;28;20430;-72
2023/07/05 08:04:08;;;;;;;3.67;1.43;;;;;;;23.38;52.82;97186.63;4950205;28;20437;-72
2023/07/05 08:06:42;;;;;;;2.20;1.63;;;;;;;23.34;53.28;97193.47;4948994;28;20585;-70
2023/07/05 08:09:10;;;;;;;2.30;1.43;;;;;;;23.36;54.03;97201.28;4946658;28;20445;-72
2023/07/05 08:11:35;;;;;;;2.00;1.60;;;;;;;23.38;54.80;97202.66;4950559;28;20502;-69
2023/07/05 08:14:01;;;;;;;2.17;1.80;;;;;;;23.37;55.13;97206.38;4950647;28;22207;-71
2023/07/05 08:16:27;;;;;;;3.60;1.90;;;;;;;23.31;55.88;97204.66;4950874;28;20771;-69
2023/07/05 08:18:52;;;;;;;3.43;3.13;;;;;;;23.27;56.46;97200.81;4949228;28;20194;-70
2023/07/05 08:21:18;;;;;;;14.27;6.70;;;;;;;23.17;56.38;97212.88;4950644;28;20198;-72
2023/07/05 08:23:44;;;;;;;3.03;2.83;;;;;;;23.08;56.39;97222.28;4954734;28;20209;-70
2023/07/05 08:26:12;;;;;;;5.30;4.80;;;;;;;23.00;56.57;97223.44;4937134;28;20338;-70
2023/07/05 08:28:38;;;;;;;2.70;2.50;;;;;;;22.94;56.49;97232.41;4912595;29;20207;-69
2023/07/05 08:31:05;;;;;;;7.40;5.40;;;;;;;22.89;56.60;97234.13;4919318;29;21072;-69
2023/07/05 08:33:32;;;;;;;7.83;3.80;;;;;;;22.83;56.06;97235.88;4907970;29;20247;-72
2023/07/05 08:36:08;;;;;;;4.33;3.77;;;;;;;22.78;56.36;97239.25;4918548;29;20528;-69
2023/07/05 08:38:34;;;;;;;2.17;1.50;;;;;;;22.79;56.65;97242.72;4918183;29;20450;-71
2023/07/05 08:41:46;;;;;;;3.47;3.17;;;;;;;22.81;56.73;97246.75;4910676;29;20444;-70
2023/07/05 08:44:21;;;;;;;1.97;1.87;;;;;;;22.84;56.41;97249.00;4920992;29;20210;-71
2023/07/05 08:46:53;;;;;;;2.20;2.03;;;;;;;22.87;56.13;97253.06;4913532;29;20420;-70
2023/07/05 08:49:22;;;;;;;2.10;1.63;;;;;;;22.91;55.96;97264.09;4937909;29;21042;-70
2023/07/05 08:51:48;;;;;;;1.70;1.60;;;;;;;22.90;55.95;97265.16;4901327;29;20495;-71
2023/07/05 08:54:16;;;;;;;2.20;1.70;;;;;;;22.91;55.50;97266.78;4928732;29;20436;-70
2023/07/05 08:57:05;;;;;;;1.57;1.47;;;;;;;22.90;55.41;97262.47;4929147;29;20464;-71
2023/07/05 08:59:41;;;;;;;2.60;1.27;;;;;;;22.92;55.40;97263.88;4913353;29;20439;-69
2023/07/05 09:02:07;;;;;;;1.50;1.40;;;;;;;23.11;55.00;97272.59;4934846;29;20458;-71
2023/07/05 09:04:33;;;;;;;2.30;1.50;;;;;;;23.41;54.15;97269.03;4911238;29;20444;-70
2023/07/05 09:07:08;;;;;;;1.70;1.27;;;;;;;23.72;53.52;97268.88;4911830;29;20458;-72
2023/07/05 09:09:46;;;;;;;1.60;1.40;;;;;;;24.11;52.61;97271.00;4902419;29;20230;-71
2023/07/05 09:12:24;;;;;;;1.77;1.40;;;;;;;24.42;51.83;97260.88;4920834;29;20475;-71
2023/07/05 09:15:02;;;;;;;2.53;1.60;;;;;;;24.56;49.98;97277.47;4903821;29;20452;-70
2023/07/05 09:17:43;;;;;;;2.33;2.13;;;;;;;24.56;47.61;97278.28;4916741;29;20531;-70
2023/07/05 09:20:46;;;;;;;2.53;2.20;;;;;;;24.52;48.46;97277.13;4921386;29;20439;-69
2023/07/05 09:23:42;;;;;;;2.50;2.30;;;;;;;24.59;48.84;97269.75;4922235;28;20527;-70
2023/07/05 09:26:17;;;;;;;8.87;2.50;;;;;;;24.52;48.96;97277.13;4977184;28;20448;-70
2023/07/05 09:28:46;;;;;;;7.27;2.37;;;;;;;24.54;49.18;97285.75;4999585;28;20967;-70
2023/07/05 09:31:13;;;;;;;9.20;2.10;;;;;;;24.53;49.13;97284.13;4986460;28;20495;-71
2023/07/05 09:33:45;;;;;;;6.40;2.60;;;;;;;24.47;48.98;97280.53;5001848;28;20936;-69
2023/07/05 09:36:22;;;;;;;7.83;2.40;;;;;;;24.41;48.21;97294.88;4984895;28;20955;-70
2023/07/05 09:38:54;;;;;;;2.83;2.10;;;;;;;24.50;47.53;97289.94;4983341;28;20459;-71
2023/07/05 09:41:33;;;;;;;3.57;3.20;;;;;;;24.32;46.00;97289.09;4981808;28;20420;-71
2023/07/05 09:43:58;;;;;;;2.60;2.40;;;;;;;24.43;46.50;97289.31;4984943;28;20527;-70
2023/07/05 09:46:31;;;;;;;4.90;2.20;;;;;;;24.66;46.77;97296.38;4982213;28;20440;-71
2023/07/05 09:48:56;;;;;;;2.60;2.40;;;;;;;24.88;45.17;97291.19;4980881;28;20732;-70
2023/07/05 09:51:22;;;;;;;2.87;2.40;;;;;;;25.13;44.95;97281.91;4982116;28;20461;-69
2023/07/05 09:53:50;;;;;;;2.77;2.40;;;;;;;25.29;43.68;97280.28;4984014;28;20723;-70
2023/07/05 09:56:26;;;;;;;7.17;2.47;;;;;;;25.55;44.53;97273.44;4992999;28;20306;-71
2023/07/05 09:59:18;;;;;;;2.93;2.60;;;;;;;26.02;43.73;97280.19;4982450;28;20494;-71
2023/07/05 10:01:48;;;;;;;3.37;2.93;;;;;;;26.39;39.63;97278.75;4975313;28;20531;-70
2023/07/05 10:04:15;;;;;;;2.50;2.30;;;;;;;26.62;39.18;97274.94;4988496;28;20434;-70
2023/07/05 10:06:43;;;;;;;3.00;2.37;;;;;;;26.70;38.22;97287.13;4992691;28;20435;-70
2023/07/05 10:09:17;;;;;;;3.40;2.13;;;;;;;26.81;38.29;97267.34;5006490;28;20460;-70
2023/07/05 10:11:48;;;;;;;3.33;2.83;;;;;;;27.04;36.31;97281.50;4991921;28;20467;-70
2023/07/05 10:14:19;;;;;;;3.00;2.70;;;;;;;26.95;31.48;97293.81;4990638;28;20451;-71
2023/07/05 10:16:57;;;;;;;3.27;2.67;;;;;;;27.27;32.25;97295.66;5007467;28;20428;-70
2023/07/05 10:19:29;;;;;;;2.73;2.50;;;;;;;27.25;29.60;97287.84;4992699;28;20443;-70
2023/07/05 10:22:13;;;;;;;2.93;2.60;;;;;;;27.25;29.64;97292.41;4989935;28;20451;-70
2023/07/05 10:24:44;;;;;;;4.77;2.87;;;;;;;27.51;30.14;97295.28;4975196;28;20436;-70
2023/07/05 10:27:34;;;;;;;4.40;2.97;;;;;;;27.63;29.58;97287.03;5009222;28;20942;-71
2023/07/05 10:30:06;;;;;;;5.07;2.97;;;;;;;27.46;29.85;97287.22;5030074;28;20431;-69
2023/07/05 10:32:32;;;;;;;3.93;2.90;;;;;;;27.59;28.92;97286.75;5031190;28;20469;-69
2023/07/05 10:34:59;;;;;;;2.67;2.47;;;;;;;27.74;29.10;97289.50;5025844;28;20525;-70
2023/07/05 10:37:32;;;;;;;10.23;3.10;;;;;;;27.96;29.31;97293.91;5031376;28;20195;-68
2023/07/05 10:39:57;;;;;;;2.90;2.70;;;;;;;28.13;28.92;97301.81;5024095;28;20491;-69
2023/07/05 10:42:24;;;;;;;3.47;2.80;;;;;;;28.18;28.32;97295.63;5028229;28;20545;-69
2023/07/05 10:44:50;;;;;;;2.70;2.50;;;;;;;28.39;26.96;97298.38;5026078;28;20192;-68
2023/07/05 10:47:16;;;;;;;3.83;2.77;;;;;;;28.54;26.97;97292.22;5027125;28;20480;-69
2023/07/05 10:49:43;;;;;;;2.60;2.40;;;;;;;28.66;26.31;97295.47;5019051;28;20185;-69
2023/07/05 10:52:12;;;;;;;4.03;2.60;;;;;;;28.75;25.98;97310.06;5040476;28;20227;-69
2023/07/05 10:54:44;;;;;;;3.30;2.80;;;;;;;28.90;25.85;97309.28;5033448;28;20434;-69
2023/07/05 10:57:34;;;;;;;4.53;3.43;;;;;;;28.99;25.60;97306.03;5023758;28;20434;-70
2023/07/05 11:00:14;;;;;;;3.20;2.83;;;;;;;28.86;25.63;97292.00;5019415;28;20843;-70
2023/07/05 11:02:55;;;;;;;4.03;3.07;;;;;;;28.86;25.93;97294.69;5022080;28;20934;-72
2023/07/05 11:05:25;;;;;;;3.50;2.93;;;;;;;28.94;25.94;97288.78;5029899;28;21040;-69
2023/07/05 11:08:19;;;;;;;3.47;3.17;;;;;;;29.13;25.94;97285.53;5022436;28;20492;-69
2023/07/05 11:10:46;;;;;;;5.73;3.10;;;;;;;29.18;26.19;97277.44;5021611;28;20935;-69
2023/07/05 11:13:16;;;;;;;3.60;3.23;;;;;;;29.31;25.97;97270.66;5028895;28;20458;-70
2023/07/05 11:15:42;;;;;;;3.40;3.10;;;;;;;29.48;26.36;97275.81;5027333;28;20532;-69
2023/07/05 11:18:16;;;;;;;3.37;2.70;;;;;;;29.61;25.43;97281.72;5022376;28;20433;-69
2023/07/05 11:20:42;;;;;;;3.50;3.20;;;;;;;29.75;26.05;97281.94;5026436;28;20931;-67
2023/07/05 11:23:09;;;;;;;3.37;2.70;;;;;;;29.62;25.48;97277.91;5027272;28;20484;-69
2023/07/05 11:26:00;;;;;;;4.70;4.30;;;;;;;29.78;24.85;97289.50;5030232;28;20242;-70
2023/07/05 11:28:43;;;;;;;3.40;3.10;;;;;;;29.69;25.03;97278.44;5035108;28;20430;-69
2023/07/05 11:31:29;;;;;;;2.87;2.67;;;;;;;29.97;25.16;97277.00;5030243;28;20465;-69
2023/07/05 11:34:29;;;;;;;3.40;3.10;;;;;;;30.19;24.55;97279.34;5034801;28;20455;-68
2023/07/05 11:37:00;;;;;;;3.97;3.10;;;;;;;30.32;24.14;97275.19;5029243;28;20427;-69
2023/07/05 11:39:37;;;;;;;3.63;3.27;;;;;;;30.44;23.86;97271.34;5030067;28;20434;-69
2023/07/05 11:42:12;;;;;;;3.00;2.70;;;;;;;30.31;22.12;97286.31;5031135;28;20950;-70
2023/07/05 11:44:38;;;;;;;4.73;2.60;;;;;;;30.34;21.92;97291.16;5030324;28;20847;-71
2023/07/05 11:47:04;;;;;;;2.93;2.70;;;;;;;30.10;21.76;97301.81;5037858;28;20949;-70